Paganino — DEDH2 — position and weather

sailwx.info

Track history (hours):
 
Tides and Currents Weather Stations Pressure Air Temp Water Temp Dewpoint Dewpoint Depression Visibility Wind Speed Wind Dir Waves Ship Positions

Paganino

Last reported at 2017-Dec-14 06:56 UTC. Time now 2018-Feb-25 13:38 UTC.
Position N 34°31' E 130°02'.
Warning: this ship's position is months out of date.

Length 182 m; draft 8.5 m.

Type: Ship. MMSI: 211730570.

Date/timePositionNaut miles runAvg speedWind from/ knotsBaromVisibWave heightAir tempDewpointWater temp
2017-Dec-14 06:56N 34°31' E 130°02'818.4
2017-Dec-14 06:30N 34°26' E 130°10'918.3
2017-Dec-14 06:00N 34°21' E 130°19'918.4
2017-Dec-14 05:30N 34°16' E 130°28'918.4
2017-Dec-14 05:00N 34°10' E 130°37'917.8
2017-Dec-14 04:30N 34°04' E 130°45'816.1
2017-Dec-14 04:00N 33°59' E 130°53'5 9.7
2017-Dec-14 03:30N 33°55' E 130°54'4 8.3
2017-Dec-14 03:00N 33°58' E 130°57'5 9.4
2017-Dec-14 02:30N 33°57' E 131°03'611.5
2017-Dec-14 02:00N 33°54' E 131°09'815.2
2017-Dec-14 01:30N 33°51' E 131°17'815.6
2017-Dec-14 01:00N 33°49' E 131°27'816.8
2017-Dec-14 00:30N 33°47' E 131°36'816.4
2017-Dec-14 00:00N 33°43' E 131°45'918.2
2017-Dec-13 23:30N 33°35' E 131°50'918.4
2017-Dec-13 23:00N 33°27' E 131°56'918.0
2017-Dec-13 22:29N 33°19' E 131°59'23915.8
2017-Dec-13 07:21N 33°58' E 136°42'3914.7
2017-Dec-13 04:43N 34°34' E 136°60'313.0
2017-Dec-13 04:29N 34°37' E 136°58'916.8
2017-Dec-13 03:55N 34°42' E 137°08'9 1.5
2017-Dec-12 21:54N 34°44' E 137°19'5 6.0
2017-Dec-12 21:05N 34°43' E 137°13'211.4
2017-Dec-12 20:55N 34°43' E 137°11'511.0
2017-Dec-12 20:30N 34°41' E 137°06'23 5.8
2017-Dec-12 16:39N 34°30' E 137°29'4 8.3
2017-Dec-12 16:13N 34°30' E 137°34'2 9.2
2017-Dec-12 15:58N 34°30' E 137°36'4 9.0
2017-Dec-12 15:30N 34°31' E 137°42'510.0
2017-Dec-12 14:59N 34°31' E 137°48'612.3
2017-Dec-12 14:30N 34°30' E 137°55'712.9
2017-Dec-12 14:00N 34°31' E 138°03'612.6
2017-Dec-12 13:29N 34°31' E 138°11'713.2
2017-Dec-12 12:59N 34°31' E 138°19'713.0
2017-Dec-12 12:27N 34°32' E 138°27'612.4
2017-Dec-12 11:58N 34°32' E 138°34'612.2
2017-Dec-12 11:27N 34°32' E 138°42'612.3
2017-Dec-12 11:00N 34°32' E 138°49'611.4
2017-Dec-12 10:30N 34°32' E 138°56'611.6
2017-Dec-12 10:00N 34°33' E 139°03'511.2
2017-Dec-12 09:30N 34°35' E 139°09'510.8
2017-Dec-12 09:00N 34°36' E 139°15'611.8
2017-Dec-12 08:29N 34°37' E 139°23'611.6
2017-Dec-12 08:00N 34°38' E 139°29'611.4
2017-Dec-12 07:29N 34°40' E 139°36'1013.3
2017-Dec-12 06:45N 34°44' E 139°47'413.4
2017-Dec-12 06:26N 34°46' E 139°52'813.3
2017-Dec-12 05:52N 34°49' E 140°00'513.2
2017-Dec-12 05:30N 34°52' E 140°05'613.0
2017-Dec-12 05:00N 34°55' E 140°12'37 7.4
2017-Dec-12 00:00N 35°18' E 140°48'16613.8 270 / 271010.610.8 8.3-5.218.0
2017-Dec-11 12:00N 37°36' E 142°42'18715.6 300 / 341000.210.8 11.4-1.415.0
2017-Dec-11 00:00N 40°12' E 144°54'17014.2 220 / 261004.010.8 13.8 3.315.1
2017-Dec-10 12:00N 42°36' E 146°54'17914.9 070 / 41017.8 5.4 1.8-10.7 4.1
2017-Dec-10 00:00N 44°48' E 149°42'18715.6 290 / 501007.8 5.4 -1.5-15.0 4.1
2017-Dec-09 12:00N 46°54' E 153°00'18315.2 280 / 40994.5 5.4 -2.1-9.0 4.2
2017-Dec-09 00:00N 49°00' E 156°18'39916.6 240 / 29994.4 5.4 3.1-6.3 3.1
2017-Dec-08 00:00N 52°18' E 165°24'43818.2 290 / 101008.310.8 1.4-7.9 4.1
2017-Dec-07 00:00N 54°06' E 177°12'   360 / 10997.110.8 3.2-5.5 6.1
Track history (hours):
 
Tides and Currents Weather Stations Pressure Air Temp Water Temp Dewpoint Dewpoint Depression Visibility Wind Speed Wind Dir Waves Ship Positions

Paganino

Last reported at 2017-Dec-14 06:56 UTC. Time now 2018-Feb-25 13:38 UTC.
Position N 34°31' E 130°02'.
Warning: this ship's position is months out of date.

Length 182 m; draft 8.5 m.

Type: Ship. MMSI: 211730570.

Date/timePositionNaut miles runAvg speedWind from/ knotsBaromVisibWave heightAir tempDewpointWater temp
2017-Dec-14 06:56N 34°31' E 130°02'818.4
2017-Dec-14 06:30N 34°26' E 130°10'918.3
2017-Dec-14 06:00N 34°21' E 130°19'918.4
2017-Dec-14 05:30N 34°16' E 130°28'918.4
2017-Dec-14 05:00N 34°10' E 130°37'917.8
2017-Dec-14 04:30N 34°04' E 130°45'816.1
2017-Dec-14 04:00N 33°59' E 130°53'5 9.7
2017-Dec-14 03:30N 33°55' E 130°54'4 8.3
2017-Dec-14 03:00N 33°58' E 130°57'5 9.4
2017-Dec-14 02:30N 33°57' E 131°03'611.5
2017-Dec-14 02:00N 33°54' E 131°09'815.2
2017-Dec-14 01:30N 33°51' E 131°17'815.6
2017-Dec-14 01:00N 33°49' E 131°27'816.8
2017-Dec-14 00:30N 33°47' E 131°36'816.4
2017-Dec-14 00:00N 33°43' E 131°45'918.2
2017-Dec-13 23:30N 33°35' E 131°50'918.4
2017-Dec-13 23:00N 33°27' E 131°56'918.0
2017-Dec-13 22:29N 33°19' E 131°59'23915.8
2017-Dec-13 07:21N 33°58' E 136°42'3914.7
2017-Dec-13 04:43N 34°34' E 136°60'313.0
2017-Dec-13 04:29N 34°37' E 136°58'916.8
2017-Dec-13 03:55N 34°42' E 137°08'9 1.5
2017-Dec-12 21:54N 34°44' E 137°19'5 6.0
2017-Dec-12 21:05N 34°43' E 137°13'211.4
2017-Dec-12 20:55N 34°43' E 137°11'511.0
2017-Dec-12 20:30N 34°41' E 137°06'23 5.8
2017-Dec-12 16:39N 34°30' E 137°29'4 8.3
2017-Dec-12 16:13N 34°30' E 137°34'2 9.2
2017-Dec-12 15:58N 34°30' E 137°36'4 9.0
2017-Dec-12 15:30N 34°31' E 137°42'510.0
2017-Dec-12 14:59N 34°31' E 137°48'612.3
2017-Dec-12 14:30N 34°30' E 137°55'712.9
2017-Dec-12 14:00N 34°31' E 138°03'612.6
2017-Dec-12 13:29N 34°31' E 138°11'713.2
2017-Dec-12 12:59N 34°31' E 138°19'713.0
2017-Dec-12 12:27N 34°32' E 138°27'612.4
2017-Dec-12 11:58N 34°32' E 138°34'612.2
2017-Dec-12 11:27N 34°32' E 138°42'612.3
2017-Dec-12 11:00N 34°32' E 138°49'611.4
2017-Dec-12 10:30N 34°32' E 138°56'611.6
2017-Dec-12 10:00N 34°33' E 139°03'511.2
2017-Dec-12 09:30N 34°35' E 139°09'510.8
2017-Dec-12 09:00N 34°36' E 139°15'611.8
2017-Dec-12 08:29N 34°37' E 139°23'611.6
2017-Dec-12 08:00N 34°38' E 139°29'611.4
2017-Dec-12 07:29N 34°40' E 139°36'1013.3
2017-Dec-12 06:45N 34°44' E 139°47'413.4
2017-Dec-12 06:26N 34°46' E 139°52'813.3
2017-Dec-12 05:52N 34°49' E 140°00'513.2
2017-Dec-12 05:30N 34°52' E 140°05'613.0
2017-Dec-12 05:00N 34°55' E 140°12'37 7.4
2017-Dec-12 00:00N 35°18' E 140°48'16613.8 270 / 271010.610.8 8.3-5.218.0
2017-Dec-11 12:00N 37°36' E 142°42'18715.6 300 / 341000.210.8 11.4-1.415.0
2017-Dec-11 00:00N 40°12' E 144°54'17014.2 220 / 261004.010.8 13.8 3.315.1
2017-Dec-10 12:00N 42°36' E 146°54'17914.9 070 / 41017.8 5.4 1.8-10.7 4.1
2017-Dec-10 00:00N 44°48' E 149°42'18715.6 290 / 501007.8 5.4 -1.5-15.0 4.1
2017-Dec-09 12:00N 46°54' E 153°00'18315.2 280 / 40994.5 5.4 -2.1-9.0 4.2
2017-Dec-09 00:00N 49°00' E 156°18'39916.6 240 / 29994.4 5.4 3.1-6.3 3.1
2017-Dec-08 00:00N 52°18' E 165°24'43818.2 290 / 101008.310.8 1.4-7.9 4.1
2017-Dec-07 00:00N 54°06' E 177°12'   360 / 10997.110.8 3.2-5.5 6.1

Dump ship's entire track history